עמוד ראשי
METAR-TAF:

METAR-TAF

שדות תעופה :

Beja, פורטוגל

קו רוחב: 38-04-40N, קו אורך: 007-55-57W, גובה: 193מטר

תצפית מזג אוויר נוכחית

הדו"ח נערך לפני 35דקות, בשעה 20:00 UTC
רוח 11קשר מכיוון מערב/צפון-מערב
טמפרטורת 23 צלסיוס
לחות 61%
לחץ 1010 hPa
ראות 10 קילומטר או יותר
ללא עננים שבסיסם נמוך מ 5000 רגל או קומולונימבוס

METAR: LPBJ 252000Z 29011KT CAVOK 23/15 Q1010

זמן: 21:35 (20:35 UTC)

תחזית

הדו"ח נערך לפני 3 שעות ו 34דקות, בשעה 17:01 UTC
תחזית בתוקף מ 25 ב 18 UTC עד 26 ב 18 UTC
רוח 10קשר מכיוון מערב/צפון-מערב
ראות 10 קילומטר או יותר
ללא עננים שבסיסם נמוך מ 5000 רגל או קומולונימבוס
הסתברות 40%
26 ב 00 UTC עד 26 ב 08 UTC
ראות: 4000מטר
עננים בינוניים בגובה 400רגל
קרעי ערפל
יעשה מ
26 ב 02 UTC עד 26 ב 04 UTC
רוח 5קשר מכיוון מערב/צפון-מערב
יעשה מ
26 ב 14 UTC עד 26 ב 17 UTC
רוח 10קשר מכיוון מערב

TAF: LPBJ 251701Z 2518/2618 29010KT CAVOK PROB40 2600/2608 4000 BCFG BKN004 BECMG 2602/2604 30005KT BECMG 2614/2617 28010KT

תצפיות ותחזיות מזג אוויר לגבי יותר מ- 4,000 שדות תעופה ברחבי העולם. דוחות METAR ו- TAF.

התחנות הזמינות מסומנות בנקודות צהובות ואדומות על גבי המפה.

העבר את העכבר לנקודה הצבעונית על מנת לראות את שם התחנה.

לאחר מכן, לחץ כדי לראות את תוכן ואת תחזיות מזג האוויר.

כדי לשנות את המפה: לחץ על הכפתורים הירוקים עם הפלוס השחור כדי להתקרב; על הכפתור הירוק עם המקף כדי להתרחק; או בחיצים הירוקים למפות סמוכות.


METAR-TAF: